createdAt,value
2023-02-12T00:01:38.844Z,11.27
2023-02-12T00:04:05.687Z,10.87
2023-02-12T00:06:32.598Z,10.57
2023-02-12T00:08:59.572Z,10.43
2023-02-12T00:11:28.805Z,12.03
2023-02-12T00:13:56.414Z,9.73
2023-02-12T00:16:25.925Z,9.60
2023-02-12T00:18:56.733Z,11.70
2023-02-12T00:21:24.322Z,11.50
2023-02-12T00:23:51.203Z,9.70
2023-02-12T00:26:20.830Z,8.57
2023-02-12T00:28:47.644Z,10.47
2023-02-12T00:31:17.620Z,9.57
2023-02-12T00:33:44.668Z,12.03
2023-02-12T00:36:15.909Z,9.37
2023-02-12T00:38:42.995Z,10.97
2023-02-12T00:41:09.980Z,8.27
2023-02-12T00:43:36.798Z,9.07
2023-02-12T00:46:05.303Z,9.73
2023-02-12T00:48:32.202Z,12.83
2023-02-12T00:50:59.065Z,8.13
2023-02-12T00:53:26.022Z,8.40
2023-02-12T00:55:53.207Z,10.77
2023-02-12T00:58:20.363Z,11.20
2023-02-12T01:00:47.208Z,8.20
2023-02-12T01:03:14.468Z,9.37
2023-02-12T01:05:41.416Z,9.60
2023-02-12T01:08:08.233Z,9.67
2023-02-12T01:10:35.253Z,8.33
2023-02-12T01:13:02.113Z,9.33
2023-02-12T01:15:29.018Z,9.03
2023-02-12T01:17:55.900Z,9.00
2023-02-12T01:20:24.902Z,11.23
2023-02-12T01:22:52.158Z,9.40
2023-02-12T01:25:20.651Z,10.10
2023-02-12T01:27:47.990Z,9.77
2023-02-12T01:30:18.038Z,9.17
2023-02-12T01:32:45.048Z,10.37
2023-02-12T01:35:12.133Z,11.93
2023-02-12T01:37:39.479Z,7.83
2023-02-12T01:40:07.525Z,9.93
2023-02-12T01:42:34.477Z,9.93
2023-02-12T01:45:13.633Z,9.43
2023-02-12T01:47:44.814Z,9.77
2023-02-12T01:50:14.337Z,10.00
2023-02-12T01:52:45.098Z,9.37
2023-02-12T01:55:12.204Z,10.27
2023-02-12T01:57:45.284Z,8.70
2023-02-12T02:00:16.501Z,10.33
2023-02-12T02:02:45.799Z,11.13
2023-02-12T02:05:16.093Z,9.00
2023-02-12T02:07:44.457Z,11.07
2023-02-12T02:10:11.455Z,10.43
2023-02-12T02:12:57.828Z,10.77
2023-02-12T02:15:27.073Z,11.13
2023-02-12T02:17:58.620Z,9.50
2023-02-12T02:21:08.467Z,10.47
2023-02-12T02:23:56.716Z,10.27
2023-02-12T02:26:41.757Z,10.43
2023-02-12T02:29:26.535Z,9.03
2023-02-12T02:32:24.128Z,9.87
2023-02-12T02:34:57.827Z,10.47
2023-02-12T02:37:29.244Z,11.47
2023-02-12T02:40:01.192Z,11.50
2023-02-12T02:42:41.657Z,9.57
2023-02-12T02:45:21.416Z,9.23
2023-02-12T02:47:53.495Z,12.10
2023-02-12T02:50:24.039Z,10.73
2023-02-12T02:52:55.339Z,10.83
2023-02-12T02:55:25.538Z,12.03
2023-02-12T02:57:56.598Z,10.07
2023-02-12T03:00:32.253Z,11.90
2023-02-12T03:03:03.304Z,14.27
2023-02-12T03:05:33.545Z,10.67
2023-02-12T03:08:14.309Z,9.83
2023-02-12T03:11:10.855Z,11.40
2023-02-12T03:13:42.800Z,11.97
2023-02-12T03:16:13.384Z,13.47
2023-02-12T03:18:50.629Z,9.23
2023-02-12T03:21:20.001Z,11.73
2023-02-12T03:23:53.430Z,10.63
2023-02-12T03:26:23.555Z,10.37
2023-02-12T03:28:50.479Z,11.07
2023-02-12T03:31:43.578Z,12.20
2023-02-12T03:34:28.686Z,10.93
2023-02-12T03:37:00.116Z,8.97
2023-02-12T03:39:33.341Z,12.57
2023-02-12T03:42:10.702Z,12.57
2023-02-12T03:44:37.458Z,10.63
2023-02-12T03:47:27.202Z,11.33
2023-02-12T03:50:11.801Z,12.07
2023-02-12T03:52:38.698Z,10.60
2023-02-12T03:55:06.087Z,9.40
2023-02-12T03:57:37.786Z,11.27
2023-02-12T04:00:08.940Z,11.83
2023-02-12T04:02:35.772Z,12.30
2023-02-12T04:05:07.467Z,11.13
2023-02-12T04:07:35.685Z,9.10
2023-02-12T04:10:02.999Z,12.70
2023-02-12T04:12:35.311Z,9.60
2023-02-12T04:15:24.396Z,10.60
2023-02-12T04:18:15.636Z,13.03
2023-02-12T04:20:51.621Z,10.67
2023-02-12T04:23:44.792Z,9.20
2023-02-12T04:26:23.315Z,10.17
2023-02-12T04:28:53.461Z,11.97
2023-02-12T04:31:41.998Z,10.57
2023-02-12T04:34:14.941Z,11.77
2023-02-12T04:36:59.913Z,17.07
2023-02-12T04:39:29.977Z,13.10
2023-02-12T04:42:00.877Z,11.27
2023-02-12T04:44:34.961Z,13.70
2023-02-12T04:47:01.842Z,12.53
2023-02-12T04:49:28.889Z,11.40
2023-02-12T04:51:55.783Z,10.73
2023-02-12T04:54:23.973Z,12.13
2023-02-12T04:56:51.255Z,13.80
2023-02-12T04:59:18.466Z,12.77
2023-02-12T05:01:45.878Z,11.93
2023-02-12T05:04:14.974Z,10.50
2023-02-12T05:06:43.122Z,10.00
2023-02-12T05:09:13.892Z,10.63
2023-02-12T05:11:40.726Z,11.13
2023-02-12T05:14:07.887Z,10.77
2023-02-12T05:16:34.910Z,10.27
2023-02-12T05:19:01.767Z,14.53
2023-02-12T05:21:28.686Z,10.37
2023-02-12T05:23:55.542Z,10.60
2023-02-12T05:26:23.280Z,12.63
2023-02-12T05:28:50.196Z,11.70
2023-02-12T05:31:21.312Z,10.27
2023-02-12T05:33:49.697Z,14.10
2023-02-12T05:36:22.123Z,13.23
2023-02-12T05:38:49.851Z,10.40
2023-02-12T05:41:19.934Z,12.03
2023-02-12T05:43:49.662Z,10.80
2023-02-12T05:46:17.994Z,12.30
2023-02-12T05:48:45.014Z,12.20
2023-02-12T05:51:16.188Z,12.10
2023-02-12T05:53:43.536Z,10.37
2023-02-12T05:56:15.870Z,11.80
2023-02-12T05:58:45.291Z,9.77
2023-02-12T06:01:24.340Z,12.40
2023-02-12T06:03:51.179Z,11.57
2023-02-12T06:06:18.205Z,10.87
2023-02-12T06:08:48.570Z,12.67
2023-02-12T06:11:16.714Z,13.13
2023-02-12T06:13:43.915Z,10.43
2023-02-12T06:16:37.123Z,11.30
2023-02-12T06:19:05.664Z,12.40
2023-02-12T06:21:33.673Z,11.87
2023-02-12T06:24:00.901Z,12.70
2023-02-12T06:26:28.017Z,11.07
2023-02-12T06:28:55.032Z,11.73
2023-02-12T06:31:27.613Z,12.40
2023-02-12T06:33:56.089Z,12.50
2023-02-12T06:36:23.369Z,13.33
2023-02-12T06:38:50.935Z,10.27
2023-02-12T06:41:17.943Z,13.73
2023-02-12T06:43:44.891Z,15.00
2023-02-12T06:46:12.372Z,11.50
2023-02-12T06:48:39.316Z,14.23
2023-02-12T06:51:14.402Z,13.90
2023-02-12T06:53:41.304Z,14.77
2023-02-12T06:56:13.409Z,15.07
2023-02-12T06:58:42.262Z,11.07
2023-02-12T07:01:18.049Z,13.37
2023-02-12T07:03:50.053Z,14.83
2023-02-12T07:06:17.413Z,12.23
2023-02-12T07:08:44.326Z,11.20
2023-02-12T07:11:11.498Z,11.90
2023-02-12T07:13:38.610Z,14.93
2023-02-12T07:16:07.264Z,12.70
2023-02-12T07:18:36.883Z,12.17
2023-02-12T07:21:05.267Z,14.37
2023-02-12T07:23:32.343Z,13.13
2023-02-12T07:26:01.179Z,11.80
2023-02-12T07:28:28.233Z,14.57
2023-02-12T07:30:55.303Z,13.93
2023-02-12T07:33:22.238Z,17.60
2023-02-12T07:35:49.988Z,12.83
2023-02-12T07:38:17.567Z,19.03
2023-02-12T07:40:45.768Z,18.33
2023-02-12T07:43:12.539Z,16.53
2023-02-12T07:45:39.377Z,15.23
2023-02-12T07:48:06.295Z,17.70
2023-02-12T07:50:33.116Z,14.60
2023-02-12T07:52:59.964Z,18.30
2023-02-12T07:55:26.841Z,15.60
2023-02-12T07:57:53.822Z,16.80
2023-02-12T08:00:21.044Z,18.60
2023-02-12T08:02:54.311Z,17.83
2023-02-12T08:05:21.255Z,15.17
2023-02-12T08:07:48.176Z,15.40
2023-02-12T08:10:15.144Z,14.43
2023-02-12T08:12:42.044Z,16.57
2023-02-12T08:15:09.278Z,13.77
2023-02-12T08:17:36.090Z,14.90
2023-02-12T08:20:03.183Z,13.23
2023-02-12T08:22:29.970Z,13.30
2023-02-12T08:24:56.771Z,14.47
2023-02-12T08:27:23.611Z,10.87
2023-02-12T08:29:50.440Z,13.73
2023-02-12T08:32:17.398Z,11.90
2023-02-12T08:34:44.282Z,13.20
2023-02-12T08:37:11.171Z,13.47
2023-02-12T08:39:38.013Z,14.67
2023-02-12T08:42:05.050Z,12.20
2023-02-12T08:44:31.952Z,14.67
2023-02-12T08:46:58.892Z,11.23
2023-02-12T08:49:28.206Z,13.37
2023-02-12T08:51:57.103Z,11.00
2023-02-12T08:54:26.647Z,12.17
2023-02-12T08:57:01.650Z,12.33
2023-02-12T08:59:28.730Z,12.07
2023-02-12T09:01:55.649Z,12.10
2023-02-12T09:04:27.390Z,14.30
2023-02-12T09:06:54.391Z,12.30
2023-02-12T09:09:21.426Z,10.83
2023-02-12T09:11:48.652Z,13.43
2023-02-12T09:14:17.184Z,12.17
2023-02-12T09:16:44.715Z,12.60
2023-02-12T09:19:14.048Z,14.67
2023-02-12T09:21:41.452Z,16.97
2023-02-12T09:24:08.819Z,14.77
2023-02-12T09:26:35.773Z,14.53
2023-02-12T09:29:03.802Z,15.83
2023-02-12T09:31:32.259Z,14.50
2023-02-12T09:34:02.270Z,16.67
2023-02-12T09:36:29.896Z,15.30
2023-02-12T09:38:57.620Z,18.00
2023-02-12T09:41:30.213Z,14.87
2023-02-12T09:44:04.658Z,20.37
2023-02-12T09:46:43.335Z,17.23
2023-02-12T09:49:14.940Z,13.10
2023-02-12T09:51:44.910Z,14.20
2023-02-12T09:54:17.669Z,14.93
2023-02-12T09:56:48.902Z,13.77
2023-02-12T09:59:30.317Z,14.03
2023-02-12T10:01:59.052Z,15.20
2023-02-12T10:04:27.806Z,13.17
2023-02-12T10:07:10.344Z,11.77
2023-02-12T10:09:41.406Z,15.83
2023-02-12T10:12:30.848Z,15.90
2023-02-12T10:15:03.674Z,13.47
2023-02-12T10:17:43.537Z,14.07
2023-02-12T10:20:34.597Z,13.03
2023-02-12T10:23:23.485Z,13.53
2023-02-12T10:25:58.852Z,17.80
2023-02-12T10:28:35.309Z,14.60
2023-02-12T10:31:15.197Z,14.90
2023-02-12T10:33:49.094Z,14.30
2023-02-12T10:36:31.564Z,13.47
2023-02-12T10:39:15.871Z,14.10
2023-02-12T10:41:50.188Z,12.13
2023-02-12T10:44:17.002Z,11.60
2023-02-12T10:46:43.995Z,12.30
2023-02-12T10:49:15.553Z,13.93
2023-02-12T10:52:24.365Z,14.90
2023-02-12T10:54:51.213Z,13.07
2023-02-12T10:57:22.381Z,22.63
2023-02-12T10:59:51.637Z,14.57
2023-02-12T11:02:27.209Z,15.50
2023-02-12T11:04:55.317Z,13.87
2023-02-12T11:07:22.923Z,14.70
2023-02-12T11:09:51.699Z,12.50
2023-02-12T11:12:21.474Z,12.90
2023-02-12T11:14:50.270Z,13.23
2023-02-12T11:17:27.403Z,13.77
2023-02-12T11:20:18.608Z,14.27
2023-02-12T11:23:02.291Z,15.00
2023-02-12T11:25:38.669Z,11.70
2023-02-12T11:28:17.589Z,13.90
2023-02-12T11:31:00.674Z,16.63
2023-02-12T11:33:30.517Z,15.17
2023-02-12T11:36:01.187Z,13.37
2023-02-12T11:38:31.817Z,16.27
2023-02-12T11:41:06.718Z,16.90
2023-02-12T11:43:37.336Z,15.73
2023-02-12T11:46:05.297Z,21.93
2023-02-12T11:48:37.957Z,17.03
2023-02-12T11:51:09.340Z,14.87
2023-02-12T11:53:40.713Z,14.10
2023-02-12T11:56:10.863Z,14.53
2023-02-12T11:58:38.525Z,17.07
2023-02-12T12:01:28.156Z,22.00
2023-02-12T12:04:06.708Z,28.67
2023-02-12T12:06:42.267Z,19.77
2023-02-12T12:09:25.352Z,20.17
2023-02-12T12:12:10.740Z,17.33
2023-02-12T12:15:13.105Z,18.13
2023-02-12T12:18:15.287Z,14.00
2023-02-12T12:20:49.956Z,13.90
2023-02-12T12:23:19.773Z,15.40
2023-02-12T12:25:49.352Z,15.07
2023-02-12T12:28:48.518Z,15.57
2023-02-12T12:31:34.990Z,12.83
2023-02-12T12:34:17.446Z,13.80
2023-02-12T12:37:12.872Z,17.37
2023-02-12T12:39:54.822Z,14.03
2023-02-12T12:42:53.220Z,12.47
2023-02-12T12:45:41.189Z,12.23
2023-02-12T12:48:33.909Z,14.17
2023-02-12T12:51:00.701Z,14.13
2023-02-12T12:53:49.200Z,14.40
2023-02-12T12:56:34.639Z,13.33
2023-02-12T12:59:43.449Z,13.97
2023-02-12T13:02:34.949Z,16.13
2023-02-12T13:05:46.644Z,12.07
2023-02-12T13:08:36.954Z,12.97
2023-02-12T13:11:35.871Z,12.10
2023-02-12T13:14:36.667Z,12.50
2023-02-12T13:17:17.390Z,12.67
2023-02-12T13:20:23.647Z,13.00
2023-02-12T13:23:00.736Z,12.50
2023-02-12T13:25:31.195Z,15.20
2023-02-12T13:28:00.054Z,12.23
2023-02-12T13:30:40.087Z,12.77
2023-02-12T13:33:34.485Z,13.50
2023-02-12T13:36:02.523Z,13.70
2023-02-12T13:38:32.994Z,13.90
2023-02-12T13:41:02.780Z,14.03
2023-02-12T13:43:53.924Z,14.17
2023-02-12T13:46:59.141Z,18.93
2023-02-12T13:49:31.701Z,12.73
2023-02-12T13:52:07.249Z,13.10
2023-02-12T13:55:01.848Z,13.50
2023-02-12T13:57:28.756Z,13.57
2023-02-12T13:59:58.413Z,13.17
2023-02-12T14:02:43.421Z,12.00
2023-02-12T14:05:26.654Z,13.03
2023-02-12T14:08:02.475Z,14.43
2023-02-12T14:10:35.952Z,13.20
2023-02-12T14:13:34.398Z,14.53
2023-02-12T14:16:21.208Z,13.90
2023-02-12T14:18:48.114Z,15.93
2023-02-12T14:21:17.292Z,14.33
2023-02-12T14:23:50.930Z,14.30
2023-02-12T14:26:22.491Z,14.63
2023-02-12T14:28:52.172Z,13.63
2023-02-12T14:31:19.228Z,12.53
2023-02-12T14:33:47.311Z,13.43
2023-02-12T14:36:39.128Z,15.10
2023-02-12T14:39:29.576Z,12.20
2023-02-12T14:42:16.467Z,13.50
2023-02-12T14:44:48.796Z,13.13
2023-02-12T14:47:35.523Z,14.87
2023-02-12T14:50:07.633Z,13.87
2023-02-12T14:52:39.990Z,12.37
2023-02-12T14:55:18.860Z,13.03
2023-02-12T14:57:45.796Z,16.50
2023-02-12T15:00:18.791Z,14.57
2023-02-12T15:03:00.073Z,14.00
2023-02-12T15:05:32.797Z,14.33
2023-02-12T15:08:07.439Z,14.63
2023-02-12T15:10:46.366Z,13.00
2023-02-12T15:13:29.690Z,19.57
2023-02-12T15:16:22.958Z,15.20
2023-02-12T15:18:55.290Z,12.57
2023-02-12T15:21:34.130Z,14.93
2023-02-12T15:24:09.047Z,15.43
2023-02-12T15:26:48.119Z,15.63
2023-02-12T15:29:24.738Z,13.93
2023-02-12T15:31:54.880Z,15.03
2023-02-12T15:34:24.824Z,14.77
2023-02-12T15:36:51.734Z,12.73
2023-02-12T15:39:21.784Z,14.83
2023-02-12T15:41:49.527Z,15.40
2023-02-12T15:44:29.095Z,13.57
2023-02-12T15:47:16.435Z,13.60
2023-02-12T15:49:44.161Z,13.77
2023-02-12T15:52:20.678Z,13.23
2023-02-12T15:54:48.108Z,13.83
2023-02-12T15:57:22.918Z,16.50
2023-02-12T15:59:54.177Z,13.07
2023-02-12T16:02:27.539Z,14.40
2023-02-12T16:04:56.380Z,14.83
2023-02-12T16:07:23.988Z,16.37
2023-02-12T16:09:54.092Z,16.57
2023-02-12T16:12:23.859Z,16.80
2023-02-12T16:14:55.966Z,14.47
2023-02-12T16:17:25.797Z,13.27
2023-02-12T16:20:09.087Z,13.67
2023-02-12T16:22:43.592Z,17.20
2023-02-12T16:25:24.521Z,13.47
2023-02-12T16:27:54.875Z,16.77
2023-02-12T16:30:28.925Z,12.93
2023-02-12T16:32:56.506Z,15.50
2023-02-12T16:35:27.104Z,19.23
2023-02-12T16:38:02.439Z,18.30
2023-02-12T16:40:32.422Z,17.50
2023-02-12T16:43:04.487Z,20.40
2023-02-12T16:45:36.380Z,16.33
2023-02-12T16:48:07.932Z,15.87
2023-02-12T16:50:43.923Z,17.07
2023-02-12T16:53:35.955Z,15.10
2023-02-12T16:56:04.434Z,14.60
2023-02-12T16:58:31.414Z,16.00
2023-02-12T17:00:59.248Z,16.43
2023-02-12T17:03:26.470Z,14.73
2023-02-12T17:05:53.500Z,15.60
2023-02-12T17:08:23.481Z,16.43
2023-02-12T17:10:50.392Z,18.00
2023-02-12T17:13:17.849Z,16.50
2023-02-12T17:15:53.292Z,16.03
2023-02-12T17:18:20.684Z,16.93
2023-02-12T17:20:54.521Z,17.07
2023-02-12T17:23:21.700Z,16.53
2023-02-12T17:25:48.666Z,16.97
2023-02-12T17:28:15.933Z,18.10
2023-02-12T17:30:42.949Z,18.50
2023-02-12T17:33:10.095Z,17.50
2023-02-12T17:35:38.912Z,20.33
2023-02-12T17:38:06.397Z,17.00
2023-02-12T17:40:36.053Z,20.00
2023-02-12T17:43:04.095Z,21.67
2023-02-12T17:45:31.175Z,17.07
2023-02-12T17:47:58.757Z,19.07
2023-02-12T17:50:26.956Z,16.83
2023-02-12T17:52:53.829Z,15.37
2023-02-12T17:55:20.713Z,21.30
2023-02-12T17:57:52.046Z,17.77
2023-02-12T18:00:19.584Z,18.83
2023-02-12T18:02:46.391Z,16.60
2023-02-12T18:05:13.835Z,17.03
2023-02-12T18:07:40.782Z,17.87
2023-02-12T18:10:10.152Z,18.23
2023-02-12T18:12:38.269Z,18.00
2023-02-12T18:15:06.052Z,16.73
2023-02-12T18:17:32.915Z,18.33
2023-02-12T18:19:59.761Z,17.93
2023-02-12T18:22:26.712Z,18.13
2023-02-12T18:24:53.634Z,18.67
2023-02-12T18:27:20.528Z,16.03
2023-02-12T18:29:47.367Z,16.97
2023-02-12T18:32:16.072Z,18.20
2023-02-12T18:34:43.852Z,18.57
2023-02-12T18:37:12.733Z,19.87
2023-02-12T18:39:39.753Z,20.87
2023-02-12T18:42:07.185Z,16.60
2023-02-12T18:44:34.083Z,21.10
2023-02-12T18:47:00.947Z,15.63
2023-02-12T18:49:28.294Z,17.27
2023-02-12T18:51:55.345Z,15.87
2023-02-12T18:54:22.259Z,17.63
2023-02-12T18:56:51.781Z,16.23
2023-02-12T18:59:19.144Z,16.63
2023-02-12T19:01:47.418Z,18.53
2023-02-12T19:04:16.281Z,16.67
2023-02-12T19:06:48.603Z,16.47
2023-02-12T19:09:16.864Z,20.10
2023-02-12T19:11:46.830Z,18.17
2023-02-12T19:14:15.341Z,19.60
2023-02-12T19:16:42.700Z,19.97
2023-02-12T19:19:09.588Z,18.00
2023-02-12T19:21:36.643Z,20.37
2023-02-12T19:24:05.379Z,18.43
2023-02-12T19:26:34.293Z,19.27
2023-02-12T19:29:02.253Z,19.93
2023-02-12T19:31:37.726Z,16.90
2023-02-12T19:34:07.989Z,15.33
2023-02-12T19:36:36.392Z,18.50
2023-02-12T19:39:04.872Z,19.13
2023-02-12T19:41:32.975Z,18.13
2023-02-12T19:44:01.716Z,17.17
2023-02-12T19:46:31.095Z,17.30
2023-02-12T19:49:00.665Z,16.17
2023-02-12T19:51:30.080Z,19.00
2023-02-12T19:54:04.282Z,17.83
2023-02-12T19:56:31.640Z,21.10
2023-02-12T19:58:59.191Z,19.47
2023-02-12T20:01:26.495Z,19.07
2023-02-12T20:03:53.894Z,21.73
2023-02-12T20:06:26.624Z,18.47
2023-02-12T20:08:53.634Z,20.07
2023-02-12T20:11:23.417Z,16.50
2023-02-12T20:13:50.823Z,16.77
2023-02-12T20:16:20.187Z,17.30
2023-02-12T20:18:49.318Z,20.20
2023-02-12T20:21:19.678Z,20.00
2023-02-12T20:23:46.633Z,18.30
2023-02-12T20:26:14.606Z,18.53
2023-02-12T20:28:43.146Z,16.90
2023-02-12T20:31:12.281Z,17.80
2023-02-12T20:33:39.511Z,16.87
2023-02-12T20:36:07.118Z,19.87
2023-02-12T20:38:34.267Z,17.67
2023-02-12T20:41:05.650Z,19.43
2023-02-12T20:43:33.382Z,16.13
2023-02-12T20:46:07.962Z,18.33
2023-02-12T20:48:34.883Z,19.10
2023-02-12T20:51:06.577Z,18.40
2023-02-12T20:53:33.697Z,16.87
2023-02-12T20:56:12.111Z,17.83
2023-02-12T20:58:41.223Z,17.23
2023-02-12T21:01:10.339Z,18.43
2023-02-12T21:03:37.634Z,16.47
2023-02-12T21:06:05.107Z,20.20
2023-02-12T21:08:32.299Z,17.63
2023-02-12T21:11:29.313Z,17.53
2023-02-12T21:14:12.447Z,18.17
2023-02-12T21:16:45.268Z,16.10
2023-02-12T21:19:14.250Z,18.90
2023-02-12T21:21:42.024Z,17.90
2023-02-12T21:24:11.199Z,19.60
2023-02-12T21:26:38.059Z,17.97
2023-02-12T21:29:05.139Z,16.80
2023-02-12T21:31:34.570Z,18.80
2023-02-12T21:34:02.761Z,18.00
2023-02-12T21:36:32.201Z,17.90
2023-02-12T21:38:59.592Z,15.80
2023-02-12T21:41:31.509Z,18.37
2023-02-12T21:44:05.897Z,16.53
2023-02-12T21:46:34.421Z,19.27
2023-02-12T21:49:01.944Z,20.37
2023-02-12T21:51:31.985Z,14.77
2023-02-12T21:54:01.773Z,15.20
2023-02-12T21:56:29.497Z,15.47
2023-02-12T21:58:58.561Z,15.63
2023-02-12T22:01:28.616Z,15.47
2023-02-12T22:03:55.675Z,18.30
2023-02-12T22:06:23.718Z,16.50
2023-02-12T22:08:51.288Z,15.27
2023-02-12T22:11:18.790Z,17.20
2023-02-12T22:13:45.958Z,16.70
2023-02-12T22:16:14.216Z,15.43
2023-02-12T22:18:42.276Z,16.57
2023-02-12T22:21:13.315Z,17.23
2023-02-12T22:23:41.388Z,16.63
2023-02-12T22:26:12.134Z,17.47
2023-02-12T22:28:45.089Z,17.57
